Pagina principale
METAR-TAF:

METAR-TAF

Aeroporti :

Alessandria-El Nouzha, Egitto

latitudine: 31-12N, longitudine: 029-57E, altezza: -2 m

Osservazione

Il bollettino è stato emesso 2 ore e 54 minuti fa, alle 11:00 UTC
Vento 13 kt da nord-ovest
Temperature 20°C
Umidità 56%
Pressione 1021 hPa
Visibilità 10 km o più
Nubi sparse ad un'altezza di 2000 ft
Nubi sparse ad un'altezza di 2200 ft

METAR: HEAX 061100Z 32013KT 9999 SCT020 SCT022 20/11 Q1021 NOSIG

Ora: 15:54 (13:54 UTC)

Previsione

Il bollettino è stato emesso 2 ore e 54 minuti fa, alle 11:00 UTC
Previsione valida dal 06 alle 12 UTC al 07 alle 18 UTC
Vento 14 kt da nord-ovest
Visibilità 10 km o più
Nubi sparse ad un'altezza di 2000 ft

TAF: HEAX 061100Z 0612/0718 32014KT 9999 SCT020

Osservazioni e previsioni meteorologiche di più di 4000 aeroporti (messaggi METAR e TAF).

Le stazioni disponibili sono rappresentate dai dischi gialli e rossi sulla carta.

Puntare il mouse per vedere il nome della stazione.

Clicca sopra per visualizzare le osservazioni e previsioni meteorologiche.

Per cambiare la mappa : fare clic sui pulsanti verdi con una croce nera per ingrandire, il pulsante verde con un trattino per diminuire, o sulla freccia verde per le mappe adiacenti.


METAR-TAF: